sensor_id;sensor_type;location;lat;lon;timestamp;pressure;altitude;pressure_sealevel;temperature;humidity
76794;BME280;65745;50.278;18.192;2023-12-04T00:00:08;100437.86;;;-3.11;78.83
76794;BME280;65745;50.278;18.192;2023-12-04T00:03:03;100433.94;;;-3.03;78.79
76794;BME280;65745;50.278;18.192;2023-12-04T00:05:36;100430.04;;;-2.95;78.95
76794;BME280;65745;50.278;18.192;2023-12-04T00:08:07;100426.63;;;-2.85;79.00
76794;BME280;65745;50.278;18.192;2023-12-04T00:10:39;100430.17;;;-2.75;79.03
76794;BME280;65745;50.278;18.192;2023-12-04T00:13:11;100429.39;;;-2.72;79.21
76794;BME280;65745;50.278;18.192;2023-12-04T00:15:43;100426.33;;;-2.79;79.30
76794;BME280;65745;50.278;18.192;2023-12-04T00:18:15;100427.95;;;-2.69;79.07
76794;BME280;65745;50.278;18.192;2023-12-04T00:20:48;100433.73;;;-2.68;78.75
76794;BME280;65745;50.278;18.192;2023-12-04T00:23:20;100433.47;;;-2.80;79.33
76794;BME280;65745;50.278;18.192;2023-12-04T00:25:53;100432.93;;;-2.88;79.75
76794;BME280;65745;50.278;18.192;2023-12-04T00:28:26;100437.39;;;-2.91;79.69
76794;BME280;65745;50.278;18.192;2023-12-04T00:30:59;100436.35;;;-2.90;79.72
76794;BME280;65745;50.278;18.192;2023-12-04T00:33:31;100437.52;;;-2.94;79.89
76794;BME280;65745;50.278;18.192;2023-12-04T00:36:05;100436.23;;;-3.00;80.17
76794;BME280;65745;50.278;18.192;2023-12-04T00:38:37;100435.35;;;-3.04;79.94
76794;BME280;65745;50.278;18.192;2023-12-04T00:41:09;100433.67;;;-3.04;80.06
76794;BME280;65745;50.278;18.192;2023-12-04T00:43:42;100435.00;;;-3.01;79.98
76794;BME280;65745;50.278;18.192;2023-12-04T00:46:14;100433.32;;;-2.98;79.87
76794;BME280;65745;50.278;18.192;2023-12-04T00:48:46;100436.08;;;-3.02;80.33
76794;BME280;65745;50.278;18.192;2023-12-04T00:51:18;100439.77;;;-3.04;80.40
76794;BME280;65745;50.278;18.192;2023-12-04T00:53:50;100441.55;;;-3.03;80.38
76794;BME280;65745;50.278;18.192;2023-12-04T00:56:22;100443.95;;;-3.02;80.62
76794;BME280;65745;50.278;18.192;2023-12-04T00:58:55;100448.30;;;-3.05;80.77
76794;BME280;65745;50.278;18.192;2023-12-04T01:01:27;100450.00;;;-3.02;80.74
76794;BME280;65745;50.278;18.192;2023-12-04T01:03:59;100450.85;;;-2.92;80.45
76794;BME280;65745;50.278;18.192;2023-12-04T01:06:31;100448.64;;;-2.86;80.43
76794;BME280;65745;50.278;18.192;2023-12-04T01:09:03;100450.38;;;-2.85;80.32
76794;BME280;65745;50.278;18.192;2023-12-04T01:11:35;100446.30;;;-2.86;80.14
76794;BME280;65745;50.278;18.192;2023-12-04T01:14:07;100445.63;;;-2.90;80.13
76794;BME280;65745;50.278;18.192;2023-12-04T01:16:39;100443.20;;;-2.95;80.62
76794;BME280;65745;50.278;18.192;2023-12-04T01:19:12;100450.00;;;-2.98;80.51
76794;BME280;65745;50.278;18.192;2023-12-04T01:21:44;100455.09;;;-3.00;80.50
76794;BME280;65745;50.278;18.192;2023-12-04T01:24:16;100456.19;;;-3.01;80.55
76794;BME280;65745;50.278;18.192;2023-12-04T01:26:48;100448.78;;;-3.01;80.56
76794;BME280;65745;50.278;18.192;2023-12-04T01:29:20;100448.42;;;-3.01;80.56
76794;BME280;65745;50.278;18.192;2023-12-04T01:31:52;100454.11;;;-3.02;80.25
76794;BME280;65745;50.278;18.192;2023-12-04T01:34:24;100455.23;;;-3.00;80.28
76794;BME280;65745;50.278;18.192;2023-12-04T01:36:56;100460.27;;;-3.03;80.38
76794;BME280;65745;50.278;18.192;2023-12-04T01:39:28;100457.05;;;-3.05;80.27
76794;BME280;65745;50.278;18.192;2023-12-04T01:42:01;100455.58;;;-3.08;80.52
76794;BME280;65745;50.278;18.192;2023-12-04T01:44:33;100451.15;;;-3.11;80.39
76794;BME280;65745;50.278;18.192;2023-12-04T01:47:07;100450.69;;;-3.12;80.46
76794;BME280;65745;50.278;18.192;2023-12-04T01:49:39;100452.19;;;-3.21;80.52
76794;BME280;65745;50.278;18.192;2023-12-04T01:52:11;100451.52;;;-3.23;80.61
76794;BME280;65745;50.278;18.192;2023-12-04T01:54:44;100449.77;;;-3.24;80.60
76794;BME280;65745;50.278;18.192;2023-12-04T01:57:16;100452.32;;;-3.25;80.50
76794;BME280;65745;50.278;18.192;2023-12-04T01:59:48;100449.89;;;-3.30;80.28
76794;BME280;65745;50.278;18.192;2023-12-04T02:02:21;100448.00;;;-3.28;80.26
76794;BME280;65745;50.278;18.192;2023-12-04T02:04:55;100446.98;;;-3.37;80.23
76794;BME280;65745;50.278;18.192;2023-12-04T02:07:29;100445.15;;;-3.40;80.07
76794;BME280;65745;50.278;18.192;2023-12-04T02:10:02;100444.75;;;-3.45;80.17
76794;BME280;65745;50.278;18.192;2023-12-04T02:12:35;100441.91;;;-3.47;79.85
76794;BME280;65745;50.278;18.192;2023-12-04T02:15:09;100450.13;;;-3.48;80.01
76794;BME280;65745;50.278;18.192;2023-12-04T02:17:42;100452.08;;;-3.46;80.14
76794;BME280;65745;50.278;18.192;2023-12-04T02:20:16;100446.84;;;-3.49;80.33
76794;BME280;65745;50.278;18.192;2023-12-04T02:22:48;100447.99;;;-3.49;80.21
76794;BME280;65745;50.278;18.192;2023-12-04T02:25:20;100448.77;;;-3.51;80.15
76794;BME280;65745;50.278;18.192;2023-12-04T02:28:07;100446.33;;;-3.53;80.20
76794;BME280;65745;50.278;18.192;2023-12-04T02:30:44;100445.03;;;-3.50;80.23
76794;BME280;65745;50.278;18.192;2023-12-04T02:33:19;100443.73;;;-3.48;80.23
76794;BME280;65745;50.278;18.192;2023-12-04T02:35:56;100440.23;;;-3.45;80.20
76794;BME280;65745;50.278;18.192;2023-12-04T02:38:29;100443.68;;;-3.42;80.23
76794;BME280;65745;50.278;18.192;2023-12-04T02:41:03;100447.19;;;-3.45;80.07
76794;BME280;65745;50.278;18.192;2023-12-04T02:43:35;100444.94;;;-3.45;80.26
76794;BME280;65745;50.278;18.192;2023-12-04T02:46:08;100443.73;;;-3.45;80.31
76794;BME280;65745;50.278;18.192;2023-12-04T02:48:40;100438.85;;;-3.46;80.21
76794;BME280;65745;50.278;18.192;2023-12-04T02:51:12;100434.00;;;-3.43;80.24
76794;BME280;65745;50.278;18.192;2023-12-04T02:53:44;100431.86;;;-3.40;80.29
76794;BME280;65745;50.278;18.192;2023-12-04T02:56:16;100432.65;;;-3.37;80.39
76794;BME280;65745;50.278;18.192;2023-12-04T02:58:48;100434.64;;;-3.39;80.76
76794;BME280;65745;50.278;18.192;2023-12-04T03:01:20;100430.92;;;-3.44;80.83
76794;BME280;65745;50.278;18.192;2023-12-04T03:03:52;100427.35;;;-3.46;81.04
76794;BME280;65745;50.278;18.192;2023-12-04T03:06:24;100429.61;;;-3.41;81.07
76794;BME280;65745;50.278;18.192;2023-12-04T03:08:56;100428.46;;;-3.36;81.00
76794;BME280;65745;50.278;18.192;2023-12-04T03:11:29;100431.33;;;-3.36;81.11
76794;BME280;65745;50.278;18.192;2023-12-04T03:14:02;100436.22;;;-3.34;81.22
76794;BME280;65745;50.278;18.192;2023-12-04T03:16:34;100437.61;;;-3.32;81.18
76794;BME280;65745;50.278;18.192;2023-12-04T03:19:06;100445.82;;;-3.30;81.25
76794;BME280;65745;50.278;18.192;2023-12-04T03:21:39;100451.70;;;-3.22;81.11
76794;BME280;65745;50.278;18.192;2023-12-04T03:24:11;100456.06;;;-3.17;80.99
76794;BME280;65745;50.278;18.192;2023-12-04T03:26:43;100457.25;;;-3.19;80.83
76794;BME280;65745;50.278;18.192;2023-12-04T03:29:15;100455.68;;;-3.19;80.48
76794;BME280;65745;50.278;18.192;2023-12-04T03:31:47;100457.34;;;-3.20;80.61
76794;BME280;65745;50.278;18.192;2023-12-04T03:34:19;100458.20;;;-3.15;80.35
76794;BME280;65745;50.278;18.192;2023-12-04T03:36:52;100457.31;;;-3.22;80.14
76794;BME280;65745;50.278;18.192;2023-12-04T03:39:24;100463.95;;;-3.27;80.09
76794;BME280;65745;50.278;18.192;2023-12-04T03:41:56;100472.90;;;-3.33;80.00
76794;BME280;65745;50.278;18.192;2023-12-04T03:44:28;100473.55;;;-3.41;79.80
76794;BME280;65745;50.278;18.192;2023-12-04T03:47:00;100469.13;;;-3.48;79.74
76794;BME280;65745;50.278;18.192;2023-12-04T03:49:33;100469.73;;;-3.55;79.82
76794;BME280;65745;50.278;18.192;2023-12-04T03:52:06;100472.54;;;-3.63;79.61
76794;BME280;65745;50.278;18.192;2023-12-04T03:54:38;100478.02;;;-3.72;79.55
76794;BME280;65745;50.278;18.192;2023-12-04T03:57:10;100475.53;;;-3.81;79.71
76794;BME280;65745;50.278;18.192;2023-12-04T03:59:42;100470.56;;;-3.88;79.89
76794;BME280;65745;50.278;18.192;2023-12-04T04:02:15;100471.65;;;-3.93;79.98
76794;BME280;65745;50.278;18.192;2023-12-04T04:04:47;100467.31;;;-3.99;80.15
76794;BME280;65745;50.278;18.192;2023-12-04T04:07:19;100470.09;;;-4.03;80.13
76794;BME280;65745;50.278;18.192;2023-12-04T04:09:51;100470.87;;;-4.08;79.89
76794;BME280;65745;50.278;18.192;2023-12-04T04:12:23;100472.30;;;-4.13;79.80
76794;BME280;65745;50.278;18.192;2023-12-04T04:14:55;100467.17;;;-4.19;79.74
76794;BME280;65745;50.278;18.192;2023-12-04T04:17:27;100465.32;;;-4.23;79.83
76794;BME280;65745;50.278;18.192;2023-12-04T04:20:00;100465.23;;;-4.26;79.75
76794;BME280;65745;50.278;18.192;2023-12-04T04:22:32;100468.40;;;-4.29;79.55
76794;BME280;65745;50.278;18.192;2023-12-04T04:25:09;100464.86;;;-4.33;79.55
76794;BME280;65745;50.278;18.192;2023-12-04T04:27:42;100458.13;;;-4.37;79.49
76794;BME280;65745;50.278;18.192;2023-12-04T04:30:14;100452.36;;;-4.47;79.57
76794;BME280;65745;50.278;18.192;2023-12-04T04:32:48;100454.67;;;-4.57;79.40
76794;BME280;65745;50.278;18.192;2023-12-04T04:35:20;100448.58;;;-4.61;79.58
76794;BME280;65745;50.278;18.192;2023-12-04T04:37:52;100449.05;;;-4.65;79.75
76794;BME280;65745;50.278;18.192;2023-12-04T04:40:24;100447.70;;;-4.69;79.64
76794;BME280;65745;50.278;18.192;2023-12-04T04:42:56;100445.95;;;-4.72;79.70
76794;BME280;65745;50.278;18.192;2023-12-04T04:45:28;100449.34;;;-4.81;79.80
76794;BME280;65745;50.278;18.192;2023-12-04T04:48:00;100455.98;;;-4.84;80.03
76794;BME280;65745;50.278;18.192;2023-12-04T04:50:32;100449.37;;;-4.77;80.01
76794;BME280;65745;50.278;18.192;2023-12-04T04:53:04;100449.61;;;-4.70;79.84
76794;BME280;65745;50.278;18.192;2023-12-04T04:55:36;100448.49;;;-4.75;79.69
76794;BME280;65745;50.278;18.192;2023-12-04T04:58:18;100451.45;;;-4.91;79.10
76794;BME280;65745;50.278;18.192;2023-12-04T05:00:51;100449.42;;;-5.08;79.08
76794;BME280;65745;50.278;18.192;2023-12-04T05:03:23;100452.79;;;-5.23;78.09
76794;BME280;65745;50.278;18.192;2023-12-04T05:05:55;100452.19;;;-5.40;77.49
76794;BME280;65745;50.278;18.192;2023-12-04T05:08:27;100454.37;;;-5.64;76.55
76794;BME280;65745;50.278;18.192;2023-12-04T05:11:00;100454.11;;;-5.82;76.54
76794;BME280;65745;50.278;18.192;2023-12-04T05:13:32;100453.75;;;-6.09;74.61
76794;BME280;65745;50.278;18.192;2023-12-04T05:16:06;100449.33;;;-6.50;72.92
76794;BME280;65745;50.278;18.192;2023-12-04T05:18:39;100453.10;;;-6.74;73.73
76794;BME280;65745;50.278;18.192;2023-12-04T05:21:11;100449.72;;;-7.02;75.42
76794;BME280;65745;50.278;18.192;2023-12-04T05:23:44;100454.17;;;-7.13;76.61
76794;BME280;65745;50.278;18.192;2023-12-04T05:26:16;100459.67;;;-7.32;76.45
76794;BME280;65745;50.278;18.192;2023-12-04T05:28:48;100464.06;;;-7.56;76.68
76794;BME280;65745;50.278;18.192;2023-12-04T05:31:19;100465.45;;;-7.67;77.65
76794;BME280;65745;50.278;18.192;2023-12-04T05:33:51;100466.25;;;-7.76;77.79
76794;BME280;65745;50.278;18.192;2023-12-04T05:36:24;100459.08;;;-8.01;77.14
76794;BME280;65745;50.278;18.192;2023-12-04T05:38:56;100457.23;;;-8.09;77.99
76794;BME280;65745;50.278;18.192;2023-12-04T05:41:31;100459.54;;;-8.03;79.30
76794;BME280;65745;50.278;18.192;2023-12-04T05:44:03;100457.70;;;-8.03;80.61
76794;BME280;65745;50.278;18.192;2023-12-04T05:46:35;100455.60;;;-8.00;81.01
76794;BME280;65745;50.278;18.192;2023-12-04T05:49:08;100455.86;;;-7.95;79.70
76794;BME280;65745;50.278;18.192;2023-12-04T05:51:41;100448.42;;;-8.02;78.47
76794;BME280;65745;50.278;18.192;2023-12-04T05:54:13;100446.05;;;-8.10;78.19
76794;BME280;65745;50.278;18.192;2023-12-04T05:56:45;100448.16;;;-8.09;78.41
76794;BME280;65745;50.278;18.192;2023-12-04T05:59:17;100448.84;;;-8.16;77.94
76794;BME280;65745;50.278;18.192;2023-12-04T06:01:59;100446.90;;;-8.34;76.97
76794;BME280;65745;50.278;18.192;2023-12-04T06:04:37;100438.09;;;-8.38;78.12
76794;BME280;65745;50.278;18.192;2023-12-04T06:07:10;100434.16;;;-8.29;78.96
76794;BME280;65745;50.278;18.192;2023-12-04T06:09:42;100430.01;;;-8.26;79.62
76794;BME280;65745;50.278;18.192;2023-12-04T06:12:14;100429.88;;;-8.22;79.64
76794;BME280;65745;50.278;18.192;2023-12-04T06:14:46;100424.89;;;-8.20;79.86
76794;BME280;65745;50.278;18.192;2023-12-04T06:17:18;100430.52;;;-8.09;79.87
76794;BME280;65745;50.278;18.192;2023-12-04T06:19:50;100435.14;;;-7.95;79.76
76794;BME280;65745;50.278;18.192;2023-12-04T06:22:23;100428.23;;;-7.97;79.64
76794;BME280;65745;50.278;18.192;2023-12-04T06:24:56;100433.30;;;-7.91;79.69
76794;BME280;65745;50.278;18.192;2023-12-04T06:27:29;100433.02;;;-7.83;79.75
76794;BME280;65745;50.278;18.192;2023-12-04T06:30:03;100430.39;;;-7.80;79.43
76794;BME280;65745;50.278;18.192;2023-12-04T06:32:36;100433.46;;;-7.88;79.18
76794;BME280;65745;50.278;18.192;2023-12-04T06:35:12;100430.78;;;-7.96;78.99
76794;BME280;65745;50.278;18.192;2023-12-04T06:37:49;100423.57;;;-8.07;78.81
76794;BME280;65745;50.278;18.192;2023-12-04T06:40:26;100422.58;;;-8.11;78.66
76794;BME280;65745;50.278;18.192;2023-12-04T06:43:01;100421.86;;;-8.15;78.62
76794;BME280;65745;50.278;18.192;2023-12-04T06:45:34;100417.70;;;-8.19;78.74
76794;BME280;65745;50.278;18.192;2023-12-04T06:48:08;100425.59;;;-8.28;78.77
76794;BME280;65745;50.278;18.192;2023-12-04T06:50:41;100431.13;;;-8.35;78.57
76794;BME280;65745;50.278;18.192;2023-12-04T06:53:13;100433.70;;;-8.42;77.95
76794;BME280;65745;50.278;18.192;2023-12-04T06:55:46;100437.81;;;-8.44;78.56
76794;BME280;65745;50.278;18.192;2023-12-04T06:58:18;100437.47;;;-8.47;78.18
76794;BME280;65745;50.278;18.192;2023-12-04T07:00:50;100443.73;;;-8.51;78.60
76794;BME280;65745;50.278;18.192;2023-12-04T07:03:24;100452.75;;;-8.56;78.05
76794;BME280;65745;50.278;18.192;2023-12-04T07:05:56;100457.01;;;-8.62;77.49
76794;BME280;65745;50.278;18.192;2023-12-04T07:08:28;100459.63;;;-8.75;77.47
76794;BME280;65745;50.278;18.192;2023-12-04T07:11:01;100461.48;;;-8.89;77.02
76794;BME280;65745;50.278;18.192;2023-12-04T07:13:36;100464.38;;;-8.95;77.31
76794;BME280;65745;50.278;18.192;2023-12-04T07:16:09;100456.85;;;-8.91;77.54
76794;BME280;65745;50.278;18.192;2023-12-04T07:18:42;100459.29;;;-8.98;76.15
76794;BME280;65745;50.278;18.192;2023-12-04T07:21:14;100459.48;;;-9.02;76.48
76794;BME280;65745;50.278;18.192;2023-12-04T07:23:46;100459.62;;;-8.87;77.36
76794;BME280;65745;50.278;18.192;2023-12-04T07:26:19;100458.24;;;-8.66;77.98
76794;BME280;65745;50.278;18.192;2023-12-04T07:28:51;100450.16;;;-8.49;77.90
76794;BME280;65745;50.278;18.192;2023-12-04T07:31:23;100445.79;;;-8.35;78.08
76794;BME280;65745;50.278;18.192;2023-12-04T07:33:56;100446.99;;;-8.20;78.26
76794;BME280;65745;50.278;18.192;2023-12-04T07:36:31;100450.55;;;-8.09;78.13
76794;BME280;65745;50.278;18.192;2023-12-04T07:39:04;100451.13;;;-7.97;78.16
76794;BME280;65745;50.278;18.192;2023-12-04T07:41:37;100452.86;;;-7.80;78.38
76794;BME280;65745;50.278;18.192;2023-12-04T07:44:09;100450.17;;;-7.70;78.43
76794;BME280;65745;50.278;18.192;2023-12-04T07:46:41;100451.70;;;-7.61;78.32
76794;BME280;65745;50.278;18.192;2023-12-04T07:49:13;100454.41;;;-7.56;78.32
76794;BME280;65745;50.278;18.192;2023-12-04T07:51:45;100449.13;;;-7.47;78.65
76794;BME280;65745;50.278;18.192;2023-12-04T07:54:18;100447.76;;;-7.35;78.45
76794;BME280;65745;50.278;18.192;2023-12-04T07:56:50;100455.27;;;-7.29;78.39
76794;BME280;65745;50.278;18.192;2023-12-04T07:59:23;100454.77;;;-7.16;78.29
76794;BME280;65745;50.278;18.192;2023-12-04T08:01:55;100446.31;;;-7.06;78.25
76794;BME280;65745;50.278;18.192;2023-12-04T08:04:27;100440.17;;;-6.92;77.80
76794;BME280;65745;50.278;18.192;2023-12-04T08:06:59;100437.91;;;-6.76;77.74
76794;BME280;65745;50.278;18.192;2023-12-04T08:09:31;100435.33;;;-6.69;77.77
76794;BME280;65745;50.278;18.192;2023-12-04T08:12:04;100435.92;;;-6.52;77.97
76794;BME280;65745;50.278;18.192;2023-12-04T08:14:36;100438.16;;;-6.34;77.94
76794;BME280;65745;50.278;18.192;2023-12-04T08:17:08;100436.30;;;-6.22;77.82
76794;BME280;65745;50.278;18.192;2023-12-04T08:19:40;100437.33;;;-6.07;77.77
76794;BME280;65745;50.278;18.192;2023-12-04T08:22:12;100436.70;;;-5.90;77.69
76794;BME280;65745;50.278;18.192;2023-12-04T08:24:45;100436.09;;;-5.75;77.89
76794;BME280;65745;50.278;18.192;2023-12-04T08:27:17;100433.84;;;-5.63;77.98
76794;BME280;65745;50.278;18.192;2023-12-04T08:29:49;100438.08;;;-5.44;78.00
76794;BME280;65745;50.278;18.192;2023-12-04T08:32:21;100434.83;;;-5.30;77.90
76794;BME280;65745;50.278;18.192;2023-12-04T08:34:54;100438.27;;;-5.18;78.01
76794;BME280;65745;50.278;18.192;2023-12-04T08:37:26;100437.54;;;-5.00;78.26
76794;BME280;65745;50.278;18.192;2023-12-04T08:39:58;100436.19;;;-4.78;78.05
76794;BME280;65745;50.278;18.192;2023-12-04T08:42:30;100439.33;;;-4.61;77.85
76794;BME280;65745;50.278;18.192;2023-12-04T08:45:03;100438.45;;;-4.44;77.75
76794;BME280;65745;50.278;18.192;2023-12-04T08:47:37;100436.17;;;-4.34;77.61
76794;BME280;65745;50.278;18.192;2023-12-04T08:50:10;100434.52;;;-4.26;77.55
76794;BME280;65745;50.278;18.192;2023-12-04T08:52:42;100436.21;;;-4.08;77.49
76794;BME280;65745;50.278;18.192;2023-12-04T08:55:14;100437.21;;;-3.95;77.35
76794;BME280;65745;50.278;18.192;2023-12-04T08:57:46;100433.23;;;-3.88;76.84
76794;BME280;65745;50.278;18.192;2023-12-04T09:00:19;100438.70;;;-3.95;76.22
76794;BME280;65745;50.278;18.192;2023-12-04T09:02:51;100439.94;;;-4.02;76.17
76794;BME280;65745;50.278;18.192;2023-12-04T09:05:37;100438.67;;;-4.11;76.01
76794;BME280;65745;50.278;18.192;2023-12-04T09:08:10;100433.06;;;-4.15;75.97
76794;BME280;65745;50.278;18.192;2023-12-04T09:11:02;100425.79;;;-4.20;75.98
76794;BME280;65745;50.278;18.192;2023-12-04T09:13:52;100425.63;;;-4.12;76.13
76794;BME280;65745;50.278;18.192;2023-12-04T09:16:25;100426.86;;;-4.15;76.05
76794;BME280;65745;50.278;18.192;2023-12-04T09:18:58;100431.12;;;-4.11;76.24
76794;BME280;65745;50.278;18.192;2023-12-04T09:21:31;100432.55;;;-4.04;76.08
76794;BME280;65745;50.278;18.192;2023-12-04T09:24:03;100427.62;;;-3.90;76.15
76794;BME280;65745;50.278;18.192;2023-12-04T09:26:35;100425.39;;;-3.73;76.22
76794;BME280;65745;50.278;18.192;2023-12-04T09:29:07;100420.66;;;-3.61;75.98
76794;BME280;65745;50.278;18.192;2023-12-04T09:31:39;100409.63;;;-3.58;75.84
76794;BME280;65745;50.278;18.192;2023-12-04T09:34:12;100403.84;;;-3.57;75.40
76794;BME280;65745;50.278;18.192;2023-12-04T09:36:44;100400.86;;;-3.61;75.12
76794;BME280;65745;50.278;18.192;2023-12-04T09:39:16;100399.83;;;-3.67;75.01
76794;BME280;65745;50.278;18.192;2023-12-04T09:41:48;100392.38;;;-3.62;75.38
76794;BME280;65745;50.278;18.192;2023-12-04T09:44:23;100392.02;;;-3.42;75.46
76794;BME280;65745;50.278;18.192;2023-12-04T09:46:56;100384.23;;;-3.22;75.41
76794;BME280;65745;50.278;18.192;2023-12-04T09:49:29;100382.29;;;-3.05;75.31
76794;BME280;65745;50.278;18.192;2023-12-04T09:52:04;100383.02;;;-2.93;75.42
76794;BME280;65745;50.278;18.192;2023-12-04T09:54:37;100379.64;;;-2.79;75.53
76794;BME280;65745;50.278;18.192;2023-12-04T09:57:09;100374.29;;;-2.61;74.89
76794;BME280;65745;50.278;18.192;2023-12-04T09:59:45;100366.34;;;-2.59;75.23
76794;BME280;65745;50.278;18.192;2023-12-04T10:02:20;100357.98;;;-2.52;75.15
76794;BME280;65745;50.278;18.192;2023-12-04T10:04:53;100355.42;;;-2.39;75.55
76794;BME280;65745;50.278;18.192;2023-12-04T10:07:25;100345.11;;;-2.31;75.18
76794;BME280;65745;50.278;18.192;2023-12-04T10:09:57;100347.50;;;-2.20;74.92
76794;BME280;65745;50.278;18.192;2023-12-04T10:12:29;100343.02;;;-2.08;75.62
76794;BME280;65745;50.278;18.192;2023-12-04T10:15:11;100339.10;;;-1.95;75.67
76794;BME280;65745;50.278;18.192;2023-12-04T10:17:43;100332.85;;;-1.80;76.25
76794;BME280;65745;50.278;18.192;2023-12-04T10:20:17;100328.73;;;-1.45;76.26
76794;BME280;65745;50.278;18.192;2023-12-04T10:22:58;100331.36;;;-1.04;75.58
76794;BME280;65745;50.278;18.192;2023-12-04T10:25:31;100325.52;;;-1.01;74.35
76794;BME280;65745;50.278;18.192;2023-12-04T10:28:12;100324.27;;;-0.92;73.84
76794;BME280;65745;50.278;18.192;2023-12-04T10:30:47;100319.52;;;-0.83;73.07
76794;BME280;65745;50.278;18.192;2023-12-04T10:33:19;100318.12;;;-0.84;72.89
76794;BME280;65745;50.278;18.192;2023-12-04T10:35:52;100316.17;;;-0.80;73.03
76794;BME280;65745;50.278;18.192;2023-12-04T10:38:26;100316.89;;;-0.75;72.85
76794;BME280;65745;50.278;18.192;2023-12-04T10:41:13;100313.61;;;-0.71;72.76
76794;BME280;65745;50.278;18.192;2023-12-04T10:43:49;100313.14;;;-0.68;72.62
76794;BME280;65745;50.278;18.192;2023-12-04T10:46:33;100312.72;;;-0.58;73.11
76794;BME280;65745;50.278;18.192;2023-12-04T10:49:08;100307.98;;;-0.48;72.80
76794;BME280;65745;50.278;18.192;2023-12-04T10:51:41;100306.69;;;-0.42;72.11
76794;BME280;65745;50.278;18.192;2023-12-04T10:54:15;100303.88;;;-0.38;72.39
76794;BME280;65745;50.278;18.192;2023-12-04T10:56:50;100299.81;;;-0.34;72.03
76794;BME280;65745;50.278;18.192;2023-12-04T10:59:27;100292.22;;;-0.29;72.35
76794;BME280;65745;50.278;18.192;2023-12-04T11:02:06;100286.61;;;-0.32;72.28
76794;BME280;65745;50.278;18.192;2023-12-04T11:04:43;100284.76;;;-0.27;71.85
76794;BME280;65745;50.278;18.192;2023-12-04T11:07:16;100277.82;;;-0.34;72.08
76794;BME280;65745;50.278;18.192;2023-12-04T11:09:50;100271.88;;;-0.29;71.87
76794;BME280;65745;50.278;18.192;2023-12-04T11:12:24;100269.79;;;-0.37;71.68
76794;BME280;65745;50.278;18.192;2023-12-04T11:14:59;100267.89;;;-0.46;72.53
76794;BME280;65745;50.278;18.192;2023-12-04T11:17:36;100265.52;;;-0.38;72.31
76794;BME280;65745;50.278;18.192;2023-12-04T11:20:13;100266.85;;;-0.31;72.31
76794;BME280;65745;50.278;18.192;2023-12-04T11:22:48;100262.14;;;-0.23;72.29
76794;BME280;65745;50.278;18.192;2023-12-04T11:25:21;100259.77;;;-0.16;72.21
76794;BME280;65745;50.278;18.192;2023-12-04T11:27:56;100254.25;;;-0.15;71.61
76794;BME280;65745;50.278;18.192;2023-12-04T11:30:29;100253.23;;;-0.17;71.69
76794;BME280;65745;50.278;18.192;2023-12-04T11:33:02;100250.44;;;-0.16;71.96
76794;BME280;65745;50.278;18.192;2023-12-04T11:35:35;100248.56;;;-0.14;71.73
76794;BME280;65745;50.278;18.192;2023-12-04T11:38:08;100241.83;;;-0.18;72.07
76794;BME280;65745;50.278;18.192;2023-12-04T11:40:42;100240.95;;;-0.14;71.80
76794;BME280;65745;50.278;18.192;2023-12-04T11:43:28;100237.34;;;-0.10;71.92
76794;BME280;65745;50.278;18.192;2023-12-04T11:46:10;100233.29;;;-0.10;70.90
76794;BME280;65745;50.278;18.192;2023-12-04T11:48:43;100228.27;;;-0.18;70.81
76794;BME280;65745;50.278;18.192;2023-12-04T11:51:16;100221.31;;;-0.21;70.94
76794;BME280;65745;50.278;18.192;2023-12-04T11:54:10;100211.73;;;-0.21;71.16
76794;BME280;65745;50.278;18.192;2023-12-04T11:56:58;100208.08;;;-0.14;71.27
76794;BME280;65745;50.278;18.192;2023-12-04T11:59:36;100200.98;;;-0.09;70.77
76794;BME280;65745;50.278;18.192;2023-12-04T12:02:11;100196.92;;;-0.09;70.72
76794;BME280;65745;50.278;18.192;2023-12-04T12:04:43;100196.80;;;-0.21;71.01
76794;BME280;65745;50.278;18.192;2023-12-04T12:07:16;100193.58;;;-0.16;71.11
76794;BME280;65745;50.278;18.192;2023-12-04T12:09:49;100189.77;;;-0.20;71.22
76794;BME280;65745;50.278;18.192;2023-12-04T12:12:21;100183.45;;;-0.26;71.12
76794;BME280;65745;50.278;18.192;2023-12-04T12:14:53;100177.75;;;-0.30;71.21
76794;BME280;65745;50.278;18.192;2023-12-04T12:17:26;100172.11;;;-0.35;71.06
76794;BME280;65745;50.278;18.192;2023-12-04T12:19:59;100170.70;;;-0.44;71.37
76794;BME280;65745;50.278;18.192;2023-12-04T12:22:31;100167.59;;;-0.55;71.34
76794;BME280;65745;50.278;18.192;2023-12-04T12:25:06;100164.02;;;-0.60;71.62
76794;BME280;65745;50.278;18.192;2023-12-04T12:27:39;100159.08;;;-0.59;71.51
76794;BME280;65745;50.278;18.192;2023-12-04T12:30:12;100158.52;;;-0.59;71.52
76794;BME280;65745;50.278;18.192;2023-12-04T12:32:44;100152.59;;;-0.67;71.61
76794;BME280;65745;50.278;18.192;2023-12-04T12:35:16;100152.08;;;-0.69;71.83
76794;BME280;65745;50.278;18.192;2023-12-04T12:37:48;100147.23;;;-0.71;72.08
76794;BME280;65745;50.278;18.192;2023-12-04T12:40:22;100144.32;;;-0.71;72.15
76794;BME280;65745;50.278;18.192;2023-12-04T12:43:05;100140.18;;;-0.73;72.54
76794;BME280;65745;50.278;18.192;2023-12-04T12:45:42;100134.75;;;-0.72;72.04
76794;BME280;65745;50.278;18.192;2023-12-04T12:48:13;100127.20;;;-0.69;72.22
76794;BME280;65745;50.278;18.192;2023-12-04T12:50:47;100121.08;;;-0.67;72.19
76794;BME280;65745;50.278;18.192;2023-12-04T12:53:20;100120.85;;;-0.68;71.64
76794;BME280;65745;50.278;18.192;2023-12-04T12:55:53;100116.31;;;-0.68;71.14
76794;BME280;65745;50.278;18.192;2023-12-04T12:58:27;100112.52;;;-0.79;71.32
76794;BME280;65745;50.278;18.192;2023-12-04T13:00:59;100113.30;;;-0.85;71.64
76794;BME280;65745;50.278;18.192;2023-12-04T13:03:33;100111.16;;;-0.89;71.71
76794;BME280;65745;50.278;18.192;2023-12-04T13:06:09;100111.13;;;-0.89;71.70
76794;BME280;65745;50.278;18.192;2023-12-04T13:08:41;100104.56;;;-0.91;71.72
76794;BME280;65745;50.278;18.192;2023-12-04T13:11:16;100103.27;;;-0.98;71.99